sensor_id;sensor_type;location;lat;lon;timestamp;P1;durP1;ratioP1;P2;durP2;ratioP2
52946;SDS011;45776;40.400;17.260;2022-11-20T00:01:29;24.83;;;4.78;;
52946;SDS011;45776;40.400;17.260;2022-11-20T00:03:55;26.85;;;4.32;;
52946;SDS011;45776;40.400;17.260;2022-11-20T00:06:21;26.08;;;4.20;;
52946;SDS011;45776;40.400;17.260;2022-11-20T00:08:47;24.55;;;3.67;;
52946;SDS011;45776;40.400;17.260;2022-11-20T00:11:19;24.50;;;4.10;;
52946;SDS011;45776;40.400;17.260;2022-11-20T00:13:46;12.48;;;3.95;;
52946;SDS011;45776;40.400;17.260;2022-11-20T00:16:14;18.08;;;3.20;;
52946;SDS011;45776;40.400;17.260;2022-11-20T00:18:40;13.75;;;2.80;;
52946;SDS011;45776;40.400;17.260;2022-11-20T00:21:09;14.68;;;2.85;;
52946;SDS011;45776;40.400;17.260;2022-11-20T00:23:35;17.48;;;3.00;;
52946;SDS011;45776;40.400;17.260;2022-11-20T00:26:04;9.20;;;3.13;;
52946;SDS011;45776;40.400;17.260;2022-11-20T00:28:29;16.90;;;3.08;;
52946;SDS011;45776;40.400;17.260;2022-11-20T00:31:04;26.25;;;4.22;;
52946;SDS011;45776;40.400;17.260;2022-11-20T00:33:30;10.95;;;2.83;;
52946;SDS011;45776;40.400;17.260;2022-11-20T00:36:15;21.77;;;2.80;;
52946;SDS011;45776;40.400;17.260;2022-11-20T00:38:40;16.35;;;2.30;;
52946;SDS011;45776;40.400;17.260;2022-11-20T00:41:07;8.10;;;1.95;;
52946;SDS011;45776;40.400;17.260;2022-11-20T00:43:32;12.00;;;2.55;;
52946;SDS011;45776;40.400;17.260;2022-11-20T00:45:58;14.00;;;3.00;;
52946;SDS011;45776;40.400;17.260;2022-11-20T00:48:23;14.15;;;1.85;;
52946;SDS011;45776;40.400;17.260;2022-11-20T00:50:49;10.77;;;2.17;;
52946;SDS011;45776;40.400;17.260;2022-11-20T00:53:14;12.18;;;1.90;;
52946;SDS011;45776;40.400;17.260;2022-11-20T00:55:39;13.82;;;2.13;;
52946;SDS011;45776;40.400;17.260;2022-11-20T00:58:05;16.05;;;2.58;;
52946;SDS011;45776;40.400;17.260;2022-11-20T01:00:30;14.20;;;2.80;;
52946;SDS011;45776;40.400;17.260;2022-11-20T01:02:55;17.00;;;2.55;;
52946;SDS011;45776;40.400;17.260;2022-11-20T01:05:21;15.25;;;2.47;;
52946;SDS011;45776;40.400;17.260;2022-11-20T01:07:46;13.60;;;2.38;;
52946;SDS011;45776;40.400;17.260;2022-11-20T01:10:11;21.00;;;3.17;;
52946;SDS011;45776;40.400;17.260;2022-11-20T01:12:36;11.63;;;2.63;;
52946;SDS011;45776;40.400;17.260;2022-11-20T01:15:02;14.63;;;2.88;;
52946;SDS011;45776;40.400;17.260;2022-11-20T01:17:27;19.27;;;3.00;;
52946;SDS011;45776;40.400;17.260;2022-11-20T01:19:52;21.35;;;3.25;;
52946;SDS011;45776;40.400;17.260;2022-11-20T01:22:18;16.52;;;2.58;;
52946;SDS011;45776;40.400;17.260;2022-11-20T01:24:43;16.05;;;2.75;;
52946;SDS011;45776;40.400;17.260;2022-11-20T01:27:08;10.25;;;1.88;;
52946;SDS011;45776;40.400;17.260;2022-11-20T01:29:33;18.60;;;2.92;;
52946;SDS011;45776;40.400;17.260;2022-11-20T01:31:59;11.52;;;2.35;;
52946;SDS011;45776;40.400;17.260;2022-11-20T01:34:24;14.80;;;2.50;;
52946;SDS011;45776;40.400;17.260;2022-11-20T01:36:50;14.77;;;2.90;;
52946;SDS011;45776;40.400;17.260;2022-11-20T01:39:17;18.23;;;2.42;;
52946;SDS011;45776;40.400;17.260;2022-11-20T01:41:43;17.17;;;3.05;;
52946;SDS011;45776;40.400;17.260;2022-11-20T01:47:12;7.72;;;1.98;;
52946;SDS011;45776;40.400;17.260;2022-11-20T01:49:49;16.08;;;2.80;;
52946;SDS011;45776;40.400;17.260;2022-11-20T01:52:17;12.05;;;2.22;;
52946;SDS011;45776;40.400;17.260;2022-11-20T01:54:48;10.50;;;2.15;;
52946;SDS011;45776;40.400;17.260;2022-11-20T01:57:15;8.32;;;2.05;;
52946;SDS011;45776;40.400;17.260;2022-11-20T01:59:43;10.20;;;2.20;;
52946;SDS011;45776;40.400;17.260;2022-11-20T02:02:09;18.42;;;2.70;;
52946;SDS011;45776;40.400;17.260;2022-11-20T02:04:35;14.75;;;2.40;;
52946;SDS011;45776;40.400;17.260;2022-11-20T02:07:00;16.75;;;2.45;;
52946;SDS011;45776;40.400;17.260;2022-11-20T02:09:26;20.13;;;2.63;;
52946;SDS011;45776;40.400;17.260;2022-11-20T02:11:52;16.48;;;2.42;;
52946;SDS011;45776;40.400;17.260;2022-11-20T02:14:18;7.20;;;1.98;;
52946;SDS011;45776;40.400;17.260;2022-11-20T02:16:45;12.38;;;2.00;;
52946;SDS011;45776;40.400;17.260;2022-11-20T02:19:22;6.95;;;1.77;;
52946;SDS011;45776;40.400;17.260;2022-11-20T02:22:02;11.25;;;2.35;;
52946;SDS011;45776;40.400;17.260;2022-11-20T02:24:30;5.80;;;1.88;;
52946;SDS011;45776;40.400;17.260;2022-11-20T02:26:57;11.40;;;2.10;;
52946;SDS011;45776;40.400;17.260;2022-11-20T02:29:35;16.00;;;2.28;;
52946;SDS011;45776;40.400;17.260;2022-11-20T02:32:02;11.30;;;1.77;;
52946;SDS011;45776;40.400;17.260;2022-11-20T02:34:28;10.32;;;2.15;;
52946;SDS011;45776;40.400;17.260;2022-11-20T02:36:53;12.35;;;1.90;;
52946;SDS011;45776;40.400;17.260;2022-11-20T02:39:19;17.02;;;2.13;;
52946;SDS011;45776;40.400;17.260;2022-11-20T02:41:45;18.70;;;2.60;;
52946;SDS011;45776;40.400;17.260;2022-11-20T02:44:10;12.52;;;2.45;;
52946;SDS011;45776;40.400;17.260;2022-11-20T02:46:36;18.52;;;3.15;;
52946;SDS011;45776;40.400;17.260;2022-11-20T02:49:04;14.90;;;2.58;;
52946;SDS011;45776;40.400;17.260;2022-11-20T02:51:30;20.88;;;4.25;;
52946;SDS011;45776;40.400;17.260;2022-11-20T02:53:55;16.13;;;1.90;;
52946;SDS011;45776;40.400;17.260;2022-11-20T02:56:21;17.95;;;3.08;;
52946;SDS011;45776;40.400;17.260;2022-11-20T02:58:46;20.60;;;3.63;;
52946;SDS011;45776;40.400;17.260;2022-11-20T03:01:11;12.52;;;2.70;;
52946;SDS011;45776;40.400;17.260;2022-11-20T03:03:37;14.65;;;2.35;;
52946;SDS011;45776;40.400;17.260;2022-11-20T03:06:02;18.17;;;3.55;;
52946;SDS011;45776;40.400;17.260;2022-11-20T03:08:27;12.77;;;2.10;;
52946;SDS011;45776;40.400;17.260;2022-11-20T03:10:53;11.75;;;2.25;;
52946;SDS011;45776;40.400;17.260;2022-11-20T03:13:18;18.40;;;3.03;;
52946;SDS011;45776;40.400;17.260;2022-11-20T03:15:44;13.10;;;2.65;;
52946;SDS011;45776;40.400;17.260;2022-11-20T03:18:09;19.00;;;2.58;;
52946;SDS011;45776;40.400;17.260;2022-11-20T03:20:34;11.00;;;2.17;;
52946;SDS011;45776;40.400;17.260;2022-11-20T03:23:00;13.20;;;2.10;;
52946;SDS011;45776;40.400;17.260;2022-11-20T03:25:25;15.00;;;2.78;;
52946;SDS011;45776;40.400;17.260;2022-11-20T03:27:50;16.25;;;2.30;;
52946;SDS011;45776;40.400;17.260;2022-11-20T03:30:16;14.80;;;2.20;;
52946;SDS011;45776;40.400;17.260;2022-11-20T03:32:41;12.95;;;2.22;;
52946;SDS011;45776;40.400;17.260;2022-11-20T03:35:07;13.82;;;2.35;;
52946;SDS011;45776;40.400;17.260;2022-11-20T03:37:32;17.65;;;2.25;;
52946;SDS011;45776;40.400;17.260;2022-11-20T03:39:57;17.13;;;2.00;;
52946;SDS011;45776;40.400;17.260;2022-11-20T03:42:22;19.20;;;2.88;;
52946;SDS011;45776;40.400;17.260;2022-11-20T03:45:06;18.27;;;2.70;;
52946;SDS011;45776;40.400;17.260;2022-11-20T03:47:32;9.07;;;1.83;;
52946;SDS011;45776;40.400;17.260;2022-11-20T03:49:57;16.77;;;2.65;;
52946;SDS011;45776;40.400;17.260;2022-11-20T03:52:22;18.33;;;3.17;;
52946;SDS011;45776;40.400;17.260;2022-11-20T03:54:47;16.35;;;2.90;;
52946;SDS011;45776;40.400;17.260;2022-11-20T03:57:13;20.40;;;3.22;;
52946;SDS011;45776;40.400;17.260;2022-11-20T03:59:38;15.65;;;2.30;;
52946;SDS011;45776;40.400;17.260;2022-11-20T04:02:03;15.27;;;2.55;;
52946;SDS011;45776;40.400;17.260;2022-11-20T04:04:29;24.80;;;2.88;;
52946;SDS011;45776;40.400;17.260;2022-11-20T04:06:54;13.00;;;2.05;;
52946;SDS011;45776;40.400;17.260;2022-11-20T04:09:19;16.58;;;2.22;;
52946;SDS011;45776;40.400;17.260;2022-11-20T04:11:45;9.82;;;2.40;;
52946;SDS011;45776;40.400;17.260;2022-11-20T04:14:13;11.65;;;2.30;;
52946;SDS011;45776;40.400;17.260;2022-11-20T04:16:39;16.00;;;2.83;;
52946;SDS011;45776;40.400;17.260;2022-11-20T04:19:08;15.38;;;2.30;;
52946;SDS011;45776;40.400;17.260;2022-11-20T04:21:34;13.57;;;2.47;;
52946;SDS011;45776;40.400;17.260;2022-11-20T04:23:59;15.85;;;3.00;;
52946;SDS011;45776;40.400;17.260;2022-11-20T04:26:26;13.70;;;1.98;;
52946;SDS011;45776;40.400;17.260;2022-11-20T04:28:51;16.50;;;2.30;;
52946;SDS011;45776;40.400;17.260;2022-11-20T04:31:17;11.43;;;2.33;;
52946;SDS011;45776;40.400;17.260;2022-11-20T04:33:43;14.10;;;2.38;;
52946;SDS011;45776;40.400;17.260;2022-11-20T04:36:16;17.02;;;2.22;;
52946;SDS011;45776;40.400;17.260;2022-11-20T04:38:42;12.73;;;2.17;;
52946;SDS011;45776;40.400;17.260;2022-11-20T04:41:08;13.80;;;2.40;;
52946;SDS011;45776;40.400;17.260;2022-11-20T04:43:33;9.38;;;2.50;;
52946;SDS011;45776;40.400;17.260;2022-11-20T04:45:59;20.25;;;3.67;;
52946;SDS011;45776;40.400;17.260;2022-11-20T04:48:25;14.68;;;2.90;;
52946;SDS011;45776;40.400;17.260;2022-11-20T04:50:51;14.73;;;2.13;;
52946;SDS011;45776;40.400;17.260;2022-11-20T04:53:17;11.50;;;1.85;;
52946;SDS011;45776;40.400;17.260;2022-11-20T04:55:42;9.65;;;2.00;;
52946;SDS011;45776;40.400;17.260;2022-11-20T04:58:08;22.85;;;3.35;;
52946;SDS011;45776;40.400;17.260;2022-11-20T05:00:33;14.18;;;2.15;;
52946;SDS011;45776;40.400;17.260;2022-11-20T05:02:58;14.02;;;2.60;;
52946;SDS011;45776;40.400;17.260;2022-11-20T05:05:23;11.13;;;1.92;;
52946;SDS011;45776;40.400;17.260;2022-11-20T05:07:49;13.75;;;1.95;;
52946;SDS011;45776;40.400;17.260;2022-11-20T05:10:14;7.65;;;1.48;;
52946;SDS011;45776;40.400;17.260;2022-11-20T05:12:40;8.25;;;1.20;;
52946;SDS011;45776;40.400;17.260;2022-11-20T05:15:05;10.32;;;1.35;;
52946;SDS011;45776;40.400;17.260;2022-11-20T05:17:30;10.70;;;1.73;;
52946;SDS011;45776;40.400;17.260;2022-11-20T05:19:56;7.43;;;1.52;;
52946;SDS011;45776;40.400;17.260;2022-11-20T05:22:21;13.90;;;1.55;;
52946;SDS011;45776;40.400;17.260;2022-11-20T05:24:46;12.93;;;1.58;;
52946;SDS011;45776;40.400;17.260;2022-11-20T05:27:12;18.50;;;1.92;;
52946;SDS011;45776;40.400;17.260;2022-11-20T05:29:37;15.93;;;2.25;;
52946;SDS011;45776;40.400;17.260;2022-11-20T05:32:02;13.45;;;1.77;;
52946;SDS011;45776;40.400;17.260;2022-11-20T05:34:28;15.88;;;1.90;;
52946;SDS011;45776;40.400;17.260;2022-11-20T05:36:53;15.80;;;1.98;;
52946;SDS011;45776;40.400;17.260;2022-11-20T05:39:18;11.52;;;1.45;;
52946;SDS011;45776;40.400;17.260;2022-11-20T05:41:43;12.85;;;1.63;;
52946;SDS011;45776;40.400;17.260;2022-11-20T05:44:12;20.77;;;2.95;;
52946;SDS011;45776;40.400;17.260;2022-11-20T05:46:37;11.63;;;1.90;;
52946;SDS011;45776;40.400;17.260;2022-11-20T05:49:02;11.70;;;1.65;;
52946;SDS011;45776;40.400;17.260;2022-11-20T05:51:28;13.98;;;2.22;;
52946;SDS011;45776;40.400;17.260;2022-11-20T05:53:53;11.02;;;2.45;;
52946;SDS011;45776;40.400;17.260;2022-11-20T05:56:19;12.55;;;1.63;;
52946;SDS011;45776;40.400;17.260;2022-11-20T05:58:45;8.60;;;1.23;;
52946;SDS011;45776;40.400;17.260;2022-11-20T06:03:39;6.50;;;1.30;;
52946;SDS011;45776;40.400;17.260;2022-11-20T06:06:05;9.57;;;1.60;;
52946;SDS011;45776;40.400;17.260;2022-11-20T06:08:31;8.52;;;1.40;;
52946;SDS011;45776;40.400;17.260;2022-11-20T06:10:56;8.65;;;1.15;;
52946;SDS011;45776;40.400;17.260;2022-11-20T06:13:21;12.20;;;3.47;;
52946;SDS011;45776;40.400;17.260;2022-11-20T06:15:50;9.85;;;1.55;;
52946;SDS011;45776;40.400;17.260;2022-11-20T06:18:16;5.50;;;1.10;;
52946;SDS011;45776;40.400;17.260;2022-11-20T06:20:41;4.70;;;1.20;;
52946;SDS011;45776;40.400;17.260;2022-11-20T06:23:07;7.68;;;1.30;;
52946;SDS011;45776;40.400;17.260;2022-11-20T06:25:32;7.40;;;1.23;;
52946;SDS011;45776;40.400;17.260;2022-11-20T06:27:57;9.27;;;0.95;;
52946;SDS011;45776;40.400;17.260;2022-11-20T06:30:22;9.85;;;1.25;;
52946;SDS011;45776;40.400;17.260;2022-11-20T06:32:48;3.65;;;1.10;;
52946;SDS011;45776;40.400;17.260;2022-11-20T06:35:13;2.33;;;0.80;;
52946;SDS011;45776;40.400;17.260;2022-11-20T06:37:38;7.57;;;1.02;;
52946;SDS011;45776;40.400;17.260;2022-11-20T06:40:04;14.75;;;2.33;;
52946;SDS011;45776;40.400;17.260;2022-11-20T06:42:29;15.48;;;1.60;;
52946;SDS011;45776;40.400;17.260;2022-11-20T06:44:55;10.23;;;1.52;;
52946;SDS011;45776;40.400;17.260;2022-11-20T06:47:20;10.57;;;1.98;;
52946;SDS011;45776;40.400;17.260;2022-11-20T06:49:45;10.52;;;2.00;;
52946;SDS011;45776;40.400;17.260;2022-11-20T06:52:10;7.88;;;1.35;;
52946;SDS011;45776;40.400;17.260;2022-11-20T06:54:36;7.15;;;1.20;;
52946;SDS011;45776;40.400;17.260;2022-11-20T06:57:01;12.00;;;1.58;;
52946;SDS011;45776;40.400;17.260;2022-11-20T06:59:26;11.40;;;1.30;;
52946;SDS011;45776;40.400;17.260;2022-11-20T07:01:51;12.38;;;1.27;;
52946;SDS011;45776;40.400;17.260;2022-11-20T07:04:17;10.73;;;2.00;;
52946;SDS011;45776;40.400;17.260;2022-11-20T07:06:42;11.85;;;1.60;;
52946;SDS011;45776;40.400;17.260;2022-11-20T07:09:07;3.45;;;0.73;;
52946;SDS011;45776;40.400;17.260;2022-11-20T07:11:33;5.97;;;0.75;;
52946;SDS011;45776;40.400;17.260;2022-11-20T07:13:58;5.15;;;1.13;;
52946;SDS011;45776;40.400;17.260;2022-11-20T07:16:23;8.25;;;1.00;;
52946;SDS011;45776;40.400;17.260;2022-11-20T07:18:49;3.50;;;0.90;;
52946;SDS011;45776;40.400;17.260;2022-11-20T07:21:14;7.13;;;0.90;;
52946;SDS011;45776;40.400;17.260;2022-11-20T07:23:39;5.40;;;0.68;;
52946;SDS011;45776;40.400;17.260;2022-11-20T07:26:05;6.25;;;0.80;;
52946;SDS011;45776;40.400;17.260;2022-11-20T07:28:31;8.20;;;1.00;;
52946;SDS011;45776;40.400;17.260;2022-11-20T07:30:56;4.28;;;1.00;;
52946;SDS011;45776;40.400;17.260;2022-11-20T07:33:22;7.32;;;1.05;;
52946;SDS011;45776;40.400;17.260;2022-11-20T07:35:47;4.20;;;0.77;;
52946;SDS011;45776;40.400;17.260;2022-11-20T07:38:12;7.45;;;1.08;;
52946;SDS011;45776;40.400;17.260;2022-11-20T07:40:38;4.95;;;0.80;;
52946;SDS011;45776;40.400;17.260;2022-11-20T07:43:03;4.57;;;0.98;;
52946;SDS011;45776;40.400;17.260;2022-11-20T07:45:28;9.35;;;1.63;;
52946;SDS011;45776;40.400;17.260;2022-11-20T07:47:54;6.68;;;1.17;;
52946;SDS011;45776;40.400;17.260;2022-11-20T07:50:19;3.30;;;0.80;;
52946;SDS011;45776;40.400;17.260;2022-11-20T07:52:44;11.57;;;3.70;;
52946;SDS011;45776;40.400;17.260;2022-11-20T07:55:10;3.95;;;0.95;;
52946;SDS011;45776;40.400;17.260;2022-11-20T07:57:35;8.65;;;1.92;;
52946;SDS011;45776;40.400;17.260;2022-11-20T08:00:01;11.30;;;2.22;;
52946;SDS011;45776;40.400;17.260;2022-11-20T08:02:26;9.80;;;3.65;;
52946;SDS011;45776;40.400;17.260;2022-11-20T08:04:52;6.70;;;2.15;;
52946;SDS011;45776;40.400;17.260;2022-11-20T08:07:17;12.30;;;2.47;;
52946;SDS011;45776;40.400;17.260;2022-11-20T08:09:42;9.57;;;1.35;;
52946;SDS011;45776;40.400;17.260;2022-11-20T08:12:08;5.70;;;1.10;;
52946;SDS011;45776;40.400;17.260;2022-11-20T08:14:52;5.13;;;0.80;;
52946;SDS011;45776;40.400;17.260;2022-11-20T08:17:17;6.70;;;2.05;;
52946;SDS011;45776;40.400;17.260;2022-11-20T08:19:42;6.18;;;0.80;;
52946;SDS011;45776;40.400;17.260;2022-11-20T08:22:08;3.55;;;0.60;;
52946;SDS011;45776;40.400;17.260;2022-11-20T08:24:33;4.72;;;0.90;;
52946;SDS011;45776;40.400;17.260;2022-11-20T08:26:58;2.85;;;0.65;;
52946;SDS011;45776;40.400;17.260;2022-11-20T08:29:24;4.50;;;0.90;;
52946;SDS011;45776;40.400;17.260;2022-11-20T08:31:49;3.67;;;0.60;;
52946;SDS011;45776;40.400;17.260;2022-11-20T08:34:14;4.85;;;0.70;;
52946;SDS011;45776;40.400;17.260;2022-11-20T08:36:40;4.75;;;0.90;;
52946;SDS011;45776;40.400;17.260;2022-11-20T08:39:05;5.28;;;1.08;;
52946;SDS011;45776;40.400;17.260;2022-11-20T08:41:30;4.13;;;1.13;;
52946;SDS011;45776;40.400;17.260;2022-11-20T08:44:05;4.57;;;0.73;;
52946;SDS011;45776;40.400;17.260;2022-11-20T08:46:35;8.70;;;1.27;;
52946;SDS011;45776;40.400;17.260;2022-11-20T08:49:02;6.68;;;0.85;;
52946;SDS011;45776;40.400;17.260;2022-11-20T08:51:28;3.05;;;0.70;;
52946;SDS011;45776;40.400;17.260;2022-11-20T08:53:53;6.80;;;0.82;;
52946;SDS011;45776;40.400;17.260;2022-11-20T08:56:21;3.80;;;0.70;;
52946;SDS011;45776;40.400;17.260;2022-11-20T08:58:46;6.50;;;0.88;;
52946;SDS011;45776;40.400;17.260;2022-11-20T09:01:12;3.50;;;0.60;;
52946;SDS011;45776;40.400;17.260;2022-11-20T09:03:37;5.68;;;0.68;;
52946;SDS011;45776;40.400;17.260;2022-11-20T09:06:03;3.63;;;0.68;;
52946;SDS011;45776;40.400;17.260;2022-11-20T09:08:29;4.15;;;0.70;;
52946;SDS011;45776;40.400;17.260;2022-11-20T09:10:55;3.88;;;0.70;;
52946;SDS011;45776;40.400;17.260;2022-11-20T09:13:21;4.82;;;0.82;;
52946;SDS011;45776;40.400;17.260;2022-11-20T09:15:47;6.13;;;1.10;;
52946;SDS011;45776;40.400;17.260;2022-11-20T09:18:12;4.57;;;1.40;;
52946;SDS011;45776;40.400;17.260;2022-11-20T09:20:38;3.75;;;0.68;;
52946;SDS011;45776;40.400;17.260;2022-11-20T09:23:03;2.53;;;0.68;;
52946;SDS011;45776;40.400;17.260;2022-11-20T09:25:28;2.75;;;0.90;;
52946;SDS011;45776;40.400;17.260;2022-11-20T09:27:55;6.82;;;1.10;;
52946;SDS011;45776;40.400;17.260;2022-11-20T09:30:20;3.80;;;0.80;;
52946;SDS011;45776;40.400;17.260;2022-11-20T09:32:45;2.15;;;0.52;;
52946;SDS011;45776;40.400;17.260;2022-11-20T09:35:11;5.93;;;0.85;;
52946;SDS011;45776;40.400;17.260;2022-11-20T09:37:36;6.03;;;0.70;;
52946;SDS011;45776;40.400;17.260;2022-11-20T09:40:02;3.60;;;0.70;;
52946;SDS011;45776;40.400;17.260;2022-11-20T09:55:18;3.25;;;0.63;;
52946;SDS011;45776;40.400;17.260;2022-11-20T09:57:44;2.97;;;0.52;;
52946;SDS011;45776;40.400;17.260;2022-11-20T10:00:11;4.57;;;0.50;;
52946;SDS011;45776;40.400;17.260;2022-11-20T10:02:40;3.03;;;0.70;;
52946;SDS011;45776;40.400;17.260;2022-11-20T10:07:52;4.63;;;0.70;;
52946;SDS011;45776;40.400;17.260;2022-11-20T10:18:11;3.33;;;0.57;;
52946;SDS011;45776;40.400;17.260;2022-11-20T10:30:48;4.60;;;0.50;;
52946;SDS011;45776;40.400;17.260;2022-11-20T10:33:18;7.47;;;0.73;;
52946;SDS011;45776;40.400;17.260;2022-11-20T10:35:45;3.22;;;0.88;;
52946;SDS011;45776;40.400;17.260;2022-11-20T10:38:21;4.00;;;0.57;;
52946;SDS011;45776;40.400;17.260;2022-11-20T10:40:49;6.00;;;1.00;;
52946;SDS011;45776;40.400;17.260;2022-11-20T10:43:18;6.97;;;0.90;;
52946;SDS011;45776;40.400;17.260;2022-11-20T10:45:46;4.05;;;0.70;;
52946;SDS011;45776;40.400;17.260;2022-11-20T10:51:03;5.43;;;1.10;;
52946;SDS011;45776;40.400;17.260;2022-11-20T10:56:22;6.28;;;2.00;;
52946;SDS011;45776;40.400;17.260;2022-11-20T11:01:38;2.33;;;0.80;;
52946;SDS011;45776;40.400;17.260;2022-11-20T11:04:07;4.22;;;0.80;;
52946;SDS011;45776;40.400;17.260;2022-11-20T11:06:40;2.92;;;0.70;;
52946;SDS011;45776;40.400;17.260;2022-11-20T11:09:15;4.05;;;0.77;;
52946;SDS011;45776;40.400;17.260;2022-11-20T11:11:41;7.22;;;0.80;;
52946;SDS011;45776;40.400;17.260;2022-11-20T11:14:13;3.10;;;0.75;;
52946;SDS011;45776;40.400;17.260;2022-11-20T11:17:00;5.30;;;1.15;;
52946;SDS011;45776;40.400;17.260;2022-11-20T11:19:25;3.05;;;1.00;;
52946;SDS011;45776;40.400;17.260;2022-11-20T11:21:54;6.00;;;1.38;;
52946;SDS011;45776;40.400;17.260;2022-11-20T11:27:01;4.03;;;1.10;;
52946;SDS011;45776;40.400;17.260;2022-11-20T11:29:32;4.35;;;0.93;;
52946;SDS011;45776;40.400;17.260;2022-11-20T11:34:29;4.00;;;1.00;;
52946;SDS011;45776;40.400;17.260;2022-11-20T11:36:57;2.83;;;0.82;;
52946;SDS011;45776;40.400;17.260;2022-11-20T11:39:23;6.32;;;1.13;;
52946;SDS011;45776;40.400;17.260;2022-11-20T11:41:49;4.15;;;0.93;;
52946;SDS011;45776;40.400;17.260;2022-11-20T11:44:17;2.75;;;1.40;;
52946;SDS011;45776;40.400;17.260;2022-11-20T11:47:02;6.25;;;1.35;;
52946;SDS011;45776;40.400;17.260;2022-11-20T11:49:27;3.40;;;1.00;;
52946;SDS011;45776;40.400;17.260;2022-11-20T11:54:26;2.55;;;0.80;;
52946;SDS011;45776;40.400;17.260;2022-11-20T11:56:53;3.55;;;0.95;;
52946;SDS011;45776;40.400;17.260;2022-11-20T11:59:39;7.47;;;1.17;;
52946;SDS011;45776;40.400;17.260;2022-11-20T12:02:04;2.35;;;1.00;;
52946;SDS011;45776;40.400;17.260;2022-11-20T12:04:57;3.78;;;1.02;;
52946;SDS011;45776;40.400;17.260;2022-11-20T12:07:43;4.75;;;0.77;;
52946;SDS011;45776;40.400;17.260;2022-11-20T12:12:54;4.03;;;0.70;;
52946;SDS011;45776;40.400;17.260;2022-11-20T12:15:31;4.68;;;0.75;;
52946;SDS011;45776;40.400;17.260;2022-11-20T12:17:56;2.75;;;1.40;;
52946;SDS011;45776;40.400;17.260;2022-11-20T12:20:23;2.75;;;0.80;;
52946;SDS011;45776;40.400;17.260;2022-11-20T12:30:22;3.38;;;1.00;;
52946;SDS011;45776;40.400;17.260;2022-11-20T12:52:15;3.67;;;1.23;;
52946;SDS011;45776;40.400;17.260;2022-11-20T13:00:07;2.90;;;1.40;;
52946;SDS011;45776;40.400;17.260;2022-11-20T13:05:16;5.40;;;1.63;;
52946;SDS011;45776;40.400;17.260;2022-11-20T13:07:43;8.82;;;1.42;;
52946;SDS011;45776;40.400;17.260;2022-11-20T13:10:23;4.75;;;2.20;;
52946;SDS011;45776;40.400;17.260;2022-11-20T13:12:54;5.38;;;1.70;;
52946;SDS011;45776;40.400;17.260;2022-11-20T13:15:44;5.57;;;1.40;;
52946;SDS011;45776;40.400;17.260;2022-11-20T13:18:11;6.95;;;1.60;;
52946;SDS011;45776;40.400;17.260;2022-11-20T13:20:40;6.00;;;1.50;;
52946;SDS011;45776;40.400;17.260;2022-11-20T13:23:06;5.55;;;1.65;;
52946;SDS011;45776;40.400;17.260;2022-11-20T13:25:35;6.82;;;1.20;;
52946;SDS011;45776;40.400;17.260;2022-11-20T13:30:36;5.88;;;1.83;;
52946;SDS011;45776;40.400;17.260;2022-11-20T13:33:05;7.57;;;1.35;;
52946;SDS011;45776;40.400;17.260;2022-11-20T13:35:32;7.00;;;1.80;;
52946;SDS011;45776;40.400;17.260;2022-11-20T13:38:11;4.40;;;1.77;;
52946;SDS011;45776;40.400;17.260;2022-11-20T13:40:53;7.70;;;2.22;;
52946;SDS011;45776;40.400;17.260;2022-11-20T13:45:54;4.18;;;1.30;;
52946;SDS011;45776;40.400;17.260;2022-11-20T13:48:20;11.80;;;5.40;;
52946;SDS011;45776;40.400;17.260;2022-11-20T13:50:54;5.63;;;1.48;;
52946;SDS011;45776;40.400;17.260;2022-11-20T13:56:01;4.22;;;1.88;;
52946;SDS011;45776;40.400;17.260;2022-11-20T14:01:08;4.75;;;1.45;;
52946;SDS011;45776;40.400;17.260;2022-11-20T14:03:34;8.73;;;1.15;;
52946;SDS011;45776;40.400;17.260;2022-11-20T14:06:04;7.57;;;1.88;;
52946;SDS011;45776;40.400;17.260;2022-11-20T14:08:35;3.45;;;1.20;;
52946;SDS011;45776;40.400;17.260;2022-11-20T14:11:11;7.10;;;2.03;;
52946;SDS011;45776;40.400;17.260;2022-11-20T14:13:37;4.28;;;1.60;;
52946;SDS011;45776;40.400;17.260;2022-11-20T14:16:02;3.03;;;1.27;;
52946;SDS011;45776;40.400;17.260;2022-11-20T14:18:28;5.88;;;1.73;;
52946;SDS011;45776;40.400;17.260;2022-11-20T14:20:53;3.10;;;1.23;;
52946;SDS011;45776;40.400;17.260;2022-11-20T14:23:25;4.78;;;1.27;;
52946;SDS011;45776;40.400;17.260;2022-11-20T14:25:50;11.57;;;3.33;;
52946;SDS011;45776;40.400;17.260;2022-11-20T14:28:49;7.50;;;1.60;;
52946;SDS011;45776;40.400;17.260;2022-11-20T14:31:09;3.28;;;1.10;;
52946;SDS011;45776;40.400;17.260;2022-11-20T14:33:41;7.65;;;1.60;;
52946;SDS011;45776;40.400;17.260;2022-11-20T14:36:15;6.30;;;1.30;;
52946;SDS011;45776;40.400;17.260;2022-11-20T14:38:41;7.60;;;1.48;;
52946;SDS011;45776;40.400;17.260;2022-11-20T14:41:08;3.35;;;1.40;;
52946;SDS011;45776;40.400;17.260;2022-11-20T14:43:34;4.82;;;1.30;;
52946;SDS011;45776;40.400;17.260;2022-11-20T14:46:03;3.60;;;1.10;;
52946;SDS011;45776;40.400;17.260;2022-11-20T14:48:39;3.05;;;1.10;;
52946;SDS011;45776;40.400;17.260;2022-11-20T14:51:05;5.03;;;1.50;;
52946;SDS011;45776;40.400;17.260;2022-11-20T14:53:30;3.15;;;1.10;;
52946;SDS011;45776;40.400;17.260;2022-11-20T14:55:57;1.88;;;1.08;;
52946;SDS011;45776;40.400;17.260;2022-11-20T14:58:24;3.17;;;1.00;;
52946;SDS011;45776;40.400;17.260;2022-11-20T15:03:30;2.50;;;1.38;;
52946;SDS011;45776;40.400;17.260;2022-11-20T15:05:56;2.03;;;1.00;;
52946;SDS011;45776;40.400;17.260;2022-11-20T15:08:21;1.95;;;0.90;;
52946;SDS011;45776;40.400;17.260;2022-11-20T15:10:47;2.90;;;1.17;;
52946;SDS011;45776;40.400;17.260;2022-11-20T15:13:14;3.50;;;1.30;;
52946;SDS011;45776;40.400;17.260;2022-11-20T15:15:47;3.60;;;1.33;;
52946;SDS011;45776;40.400;17.260;2022-11-20T15:18:14;2.85;;;1.25;;
52946;SDS011;45776;40.400;17.260;2022-11-20T15:20:41;3.60;;;1.27;;
52946;SDS011;45776;40.400;17.260;2022-11-20T15:23:13;2.38;;;1.02;;
